sensor_id;sensor_type;location;lat;lon;timestamp;pressure;altitude;pressure_sealevel;temperature;humidity
78317;BME280;67572;50.930;18.276;2023-08-12T00:00:58;99664.91;;;15.24;68.61
78317;BME280;67572;50.930;18.276;2023-08-12T00:04:02;99661.84;;;14.84;69.84
78317;BME280;67572;50.930;18.276;2023-08-12T00:07:06;99668.34;;;14.57;71.50
78317;BME280;67572;50.930;18.276;2023-08-12T00:10:12;99664.31;;;14.28;72.47
78317;BME280;67572;50.930;18.276;2023-08-12T00:13:15;99656.84;;;14.68;71.40
78317;BME280;67572;50.930;18.276;2023-08-12T00:16:20;99662.31;;;14.66;71.45
78317;BME280;67572;50.930;18.276;2023-08-12T00:19:23;99652.03;;;14.49;72.37
78317;BME280;67572;50.930;18.276;2023-08-12T00:22:27;99654.63;;;14.73;71.18
78317;BME280;67572;50.930;18.276;2023-08-12T00:25:32;99649.91;;;14.88;70.42
78317;BME280;67572;50.930;18.276;2023-08-12T00:28:36;99648.47;;;14.84;70.67
78317;BME280;67572;50.930;18.276;2023-08-12T00:31:39;99659.66;;;14.78;71.02
78317;BME280;67572;50.930;18.276;2023-08-12T00:34:43;99656.72;;;14.69;71.43
78317;BME280;67572;50.930;18.276;2023-08-12T00:37:50;99656.19;;;14.64;71.41
78317;BME280;67572;50.930;18.276;2023-08-12T00:40:55;99661.28;;;14.56;71.51
78317;BME280;67572;50.930;18.276;2023-08-12T00:43:58;99656.97;;;14.66;70.73
78317;BME280;67572;50.930;18.276;2023-08-12T00:47:02;99660.06;;;14.25;72.18
78317;BME280;67572;50.930;18.276;2023-08-12T00:50:07;99657.84;;;14.19;72.91
78317;BME280;67572;50.930;18.276;2023-08-12T00:53:13;99661.84;;;13.89;74.38
78317;BME280;67572;50.930;18.276;2023-08-12T00:56:19;99658.41;;;13.64;75.39
78317;BME280;67572;50.930;18.276;2023-08-12T00:59:23;99648.13;;;13.70;74.84
78317;BME280;67572;50.930;18.276;2023-08-12T01:02:27;99653.59;;;13.69;74.93
78317;BME280;67572;50.930;18.276;2023-08-12T01:05:31;99656.22;;;13.45;75.42
78317;BME280;67572;50.930;18.276;2023-08-12T01:08:40;99657.44;;;13.28;76.04
78317;BME280;67572;50.930;18.276;2023-08-12T01:11:50;99659.97;;;13.42;76.07
78317;BME280;67572;50.930;18.276;2023-08-12T01:15:01;99654.88;;;13.39;76.43
78317;BME280;67572;50.930;18.276;2023-08-12T01:18:07;99652.63;;;13.33;75.79
78317;BME280;67572;50.930;18.276;2023-08-12T01:21:15;99652.72;;;13.19;76.69
78317;BME280;67572;50.930;18.276;2023-08-12T01:24:21;99655.38;;;13.44;75.93
78317;BME280;67572;50.930;18.276;2023-08-12T01:27:25;99652.97;;;13.65;75.05
78317;BME280;67572;50.930;18.276;2023-08-12T01:30:28;99659.50;;;14.33;72.93
78317;BME280;67572;50.930;18.276;2023-08-12T01:33:36;99662.88;;;14.24;72.62
78317;BME280;67572;50.930;18.276;2023-08-12T01:36:45;99667.88;;;14.63;71.17
78317;BME280;67572;50.930;18.276;2023-08-12T01:39:52;99664.63;;;14.36;71.80
78317;BME280;67572;50.930;18.276;2023-08-12T01:42:57;99663.06;;;14.44;72.16
78317;BME280;67572;50.930;18.276;2023-08-12T01:46:01;99665.78;;;14.56;71.34
78317;BME280;67572;50.930;18.276;2023-08-12T01:49:05;99652.41;;;14.56;70.54
78317;BME280;67572;50.930;18.276;2023-08-12T01:52:09;99662.53;;;14.63;70.63
78317;BME280;67572;50.930;18.276;2023-08-12T01:55:14;99651.34;;;14.69;70.70
78317;BME280;67572;50.930;18.276;2023-08-12T01:58:18;99639.69;;;14.70;70.76
78317;BME280;67572;50.930;18.276;2023-08-12T02:01:22;99634.28;;;14.48;71.61
78317;BME280;67572;50.930;18.276;2023-08-12T02:04:27;99641.13;;;14.63;70.91
78317;BME280;67572;50.930;18.276;2023-08-12T02:07:31;99632.16;;;14.87;69.89
78317;BME280;67572;50.930;18.276;2023-08-12T02:10:36;99622.41;;;14.86;69.97
78317;BME280;67572;50.930;18.276;2023-08-12T02:13:39;99617.53;;;14.80;70.18
78317;BME280;67572;50.930;18.276;2023-08-12T02:16:43;99625.94;;;14.75;69.94
78317;BME280;67572;50.930;18.276;2023-08-12T02:19:47;99628.50;;;15.10;68.25
78317;BME280;67572;50.930;18.276;2023-08-12T02:22:50;99630.84;;;15.15;68.16
78317;BME280;67572;50.930;18.276;2023-08-12T02:25:55;99624.00;;;14.99;68.62
78317;BME280;67572;50.930;18.276;2023-08-12T02:29:01;99624.34;;;14.61;70.31
78317;BME280;67572;50.930;18.276;2023-08-12T02:32:05;99631.53;;;14.61;70.56
78317;BME280;67572;50.930;18.276;2023-08-12T02:35:09;99631.69;;;14.82;68.95
78317;BME280;67572;50.930;18.276;2023-08-12T02:38:12;99628.28;;;14.91;69.04
78317;BME280;67572;50.930;18.276;2023-08-12T02:41:17;99632.78;;;14.90;68.41
78317;BME280;67572;50.930;18.276;2023-08-12T02:44:21;99629.25;;;14.90;68.11
78317;BME280;67572;50.930;18.276;2023-08-12T02:47:25;99629.63;;;15.08;67.49
78317;BME280;67572;50.930;18.276;2023-08-12T02:50:29;99637.06;;;15.26;66.49
78317;BME280;67572;50.930;18.276;2023-08-12T02:53:32;99624.28;;;15.19;66.98
78317;BME280;67572;50.930;18.276;2023-08-12T02:56:37;99627.78;;;15.08;67.48
78317;BME280;67572;50.930;18.276;2023-08-12T02:59:41;99630.22;;;15.00;67.69
78317;BME280;67572;50.930;18.276;2023-08-12T03:02:45;99626.94;;;15.08;67.70
78317;BME280;67572;50.930;18.276;2023-08-12T03:05:49;99633.50;;;15.15;67.18
78317;BME280;67572;50.930;18.276;2023-08-12T03:08:52;99625.47;;;14.92;67.79
78317;BME280;67572;50.930;18.276;2023-08-12T03:11:57;99629.88;;;15.05;66.97
78317;BME280;67572;50.930;18.276;2023-08-12T03:15:06;99633.03;;;14.98;67.93
78317;BME280;67572;50.930;18.276;2023-08-12T03:18:10;99632.38;;;14.73;68.57
78317;BME280;67572;50.930;18.276;2023-08-12T03:21:14;99636.44;;;15.01;67.41
78317;BME280;67572;50.930;18.276;2023-08-12T03:24:17;99637.16;;;15.14;67.04
78317;BME280;67572;50.930;18.276;2023-08-12T03:27:23;99642.53;;;15.14;67.10
78317;BME280;67572;50.930;18.276;2023-08-12T03:30:27;99640.09;;;14.99;68.00
78317;BME280;67572;50.930;18.276;2023-08-12T03:33:32;99635.22;;;14.82;68.46
78317;BME280;67572;50.930;18.276;2023-08-12T03:36:37;99635.09;;;15.06;66.96
78317;BME280;67572;50.930;18.276;2023-08-12T03:39:41;99632.41;;;14.95;67.76
78317;BME280;67572;50.930;18.276;2023-08-12T03:42:46;99628.75;;;14.96;67.86
78317;BME280;67572;50.930;18.276;2023-08-12T03:45:51;99631.44;;;15.18;66.63
78317;BME280;67572;50.930;18.276;2023-08-12T03:48:55;99625.72;;;15.01;67.34
78317;BME280;67572;50.930;18.276;2023-08-12T03:51:59;99625.59;;;15.24;66.07
78317;BME280;67572;50.930;18.276;2023-08-12T03:55:06;99622.69;;;15.27;66.29
78317;BME280;67572;50.930;18.276;2023-08-12T03:58:11;99628.13;;;15.37;65.36
78317;BME280;67572;50.930;18.276;2023-08-12T04:01:16;99625.06;;;15.53;64.70
78317;BME280;67572;50.930;18.276;2023-08-12T04:04:20;99627.88;;;15.74;63.40
78317;BME280;67572;50.930;18.276;2023-08-12T04:07:24;99631.38;;;16.18;61.72
78317;BME280;67572;50.930;18.276;2023-08-12T04:10:30;99620.13;;;15.92;62.85
78317;BME280;67572;50.930;18.276;2023-08-12T04:13:35;99622.72;;;15.82;64.08
78317;BME280;67572;50.930;18.276;2023-08-12T04:16:38;99610.88;;;15.85;64.27
78317;BME280;67572;50.930;18.276;2023-08-12T04:19:42;99610.72;;;15.97;63.93
78317;BME280;67572;50.930;18.276;2023-08-12T04:22:45;99608.69;;;15.90;64.46
78317;BME280;67572;50.930;18.276;2023-08-12T04:25:52;99614.53;;;15.95;65.83
78317;BME280;67572;50.930;18.276;2023-08-12T04:29:01;99612.78;;;15.94;65.23
78317;BME280;67572;50.930;18.276;2023-08-12T04:32:05;99610.09;;;15.94;65.58
78317;BME280;67572;50.930;18.276;2023-08-12T04:35:10;99611.06;;;16.04;64.89
78317;BME280;67572;50.930;18.276;2023-08-12T04:38:14;99612.13;;;16.13;64.87
78317;BME280;67572;50.930;18.276;2023-08-12T04:41:18;99614.66;;;16.14;65.25
78317;BME280;67572;50.930;18.276;2023-08-12T04:44:23;99602.44;;;16.21;64.64
78317;BME280;67572;50.930;18.276;2023-08-12T04:47:27;99614.38;;;16.49;63.81
78317;BME280;67572;50.930;18.276;2023-08-12T04:50:31;99612.97;;;16.55;63.17
78317;BME280;67572;50.930;18.276;2023-08-12T04:53:36;99606.66;;;16.35;64.48
78317;BME280;67572;50.930;18.276;2023-08-12T04:56:41;99612.47;;;16.40;63.59
78317;BME280;67572;50.930;18.276;2023-08-12T04:59:47;99617.44;;;16.45;63.20
78317;BME280;67572;50.930;18.276;2023-08-12T05:02:51;99609.91;;;16.59;61.98
78317;BME280;67572;50.930;18.276;2023-08-12T05:05:55;99615.13;;;16.61;63.65
78317;BME280;67572;50.930;18.276;2023-08-12T05:09:01;99621.63;;;16.58;63.64
78317;BME280;67572;50.930;18.276;2023-08-12T05:12:07;99617.16;;;16.69;63.86
78317;BME280;67572;50.930;18.276;2023-08-12T05:15:12;99612.78;;;16.68;63.44
78317;BME280;67572;50.930;18.276;2023-08-12T05:18:16;99620.34;;;16.74;64.22
78317;BME280;67572;50.930;18.276;2023-08-12T05:21:20;99619.81;;;16.80;63.24
78317;BME280;67572;50.930;18.276;2023-08-12T05:24:25;99615.94;;;16.94;62.62
78317;BME280;67572;50.930;18.276;2023-08-12T05:27:28;99621.91;;;17.07;62.57
78317;BME280;67572;50.930;18.276;2023-08-12T05:30:34;99622.94;;;17.46;61.88
78317;BME280;67572;50.930;18.276;2023-08-12T05:33:37;99617.81;;;17.43;61.07
78317;BME280;67572;50.930;18.276;2023-08-12T05:36:41;99618.44;;;17.56;62.01
78317;BME280;67572;50.930;18.276;2023-08-12T05:39:45;99620.06;;;17.78;60.85
78317;BME280;67572;50.930;18.276;2023-08-12T05:42:49;99623.59;;;17.98;59.23
78317;BME280;67572;50.930;18.276;2023-08-12T05:45:54;99616.81;;;17.94;59.23
78317;BME280;67572;50.930;18.276;2023-08-12T05:48:58;99620.94;;;18.08;58.88
78317;BME280;67572;50.930;18.276;2023-08-12T05:52:01;99612.44;;;18.32;59.61
78317;BME280;67572;50.930;18.276;2023-08-12T05:55:06;99625.72;;;18.43;60.60
78317;BME280;67572;50.930;18.276;2023-08-12T05:58:09;99630.97;;;18.54;60.65
78317;BME280;67572;50.930;18.276;2023-08-12T06:01:14;99620.34;;;18.72;60.35
78317;BME280;67572;50.930;18.276;2023-08-12T06:04:18;99630.06;;;18.92;60.69
78317;BME280;67572;50.930;18.276;2023-08-12T06:07:22;99622.38;;;19.07;60.17
78317;BME280;67572;50.930;18.276;2023-08-12T06:10:25;99623.47;;;19.14;59.95
78317;BME280;67572;50.930;18.276;2023-08-12T06:13:29;99621.63;;;19.42;59.69
78317;BME280;67572;50.930;18.276;2023-08-12T06:16:34;99622.44;;;19.80;58.96
78317;BME280;67572;50.930;18.276;2023-08-12T06:19:37;99621.38;;;19.73;58.56
78317;BME280;67572;50.930;18.276;2023-08-12T06:22:41;99623.53;;;19.87;58.96
78317;BME280;67572;50.930;18.276;2023-08-12T06:25:45;99623.78;;;20.11;58.08
78317;BME280;67572;50.930;18.276;2023-08-12T06:31:02;99611.91;;;20.04;55.74
78317;BME280;67572;50.930;18.276;2023-08-12T06:34:06;99613.50;;;20.33;56.28
78317;BME280;67572;50.930;18.276;2023-08-12T06:37:09;99622.53;;;20.59;56.64
78317;BME280;67572;50.930;18.276;2023-08-12T06:40:13;99616.34;;;20.67;54.23
78317;BME280;67572;50.930;18.276;2023-08-12T06:43:17;99624.56;;;20.83;54.98
78317;BME280;67572;50.930;18.276;2023-08-12T06:46:22;99620.13;;;21.08;52.29
78317;BME280;67572;50.930;18.276;2023-08-12T06:49:25;99616.66;;;21.50;51.34
78317;BME280;67572;50.930;18.276;2023-08-12T06:52:29;99623.88;;;21.33;50.64
78317;BME280;67572;50.930;18.276;2023-08-12T06:55:33;99614.63;;;21.52;50.94
78317;BME280;67572;50.930;18.276;2023-08-12T06:58:37;99617.69;;;21.57;52.03
78317;BME280;67572;50.930;18.276;2023-08-12T07:01:41;99618.22;;;21.69;49.97
78317;BME280;67572;50.930;18.276;2023-08-12T07:04:45;99610.59;;;22.14;51.37
78317;BME280;67572;50.930;18.276;2023-08-12T07:07:48;99612.38;;;21.98;51.16
78317;BME280;67572;50.930;18.276;2023-08-12T07:10:52;99620.00;;;22.02;48.87
78317;BME280;67572;50.930;18.276;2023-08-12T07:13:56;99620.84;;;22.03;49.35
78317;BME280;67572;50.930;18.276;2023-08-12T07:17:01;99602.66;;;22.29;47.31
78317;BME280;67572;50.930;18.276;2023-08-12T07:20:06;99605.50;;;22.60;48.34
78317;BME280;67572;50.930;18.276;2023-08-12T07:23:10;99608.00;;;23.03;48.14
78317;BME280;67572;50.930;18.276;2023-08-12T07:26:13;99601.25;;;22.58;47.26
78317;BME280;67572;50.930;18.276;2023-08-12T07:29:16;99604.28;;;22.79;45.54
78317;BME280;67572;50.930;18.276;2023-08-12T07:32:21;99606.78;;;23.21;44.83
78317;BME280;67572;50.930;18.276;2023-08-12T07:35:25;99602.22;;;23.14;45.36
78317;BME280;67572;50.930;18.276;2023-08-12T07:38:28;99604.78;;;23.46;47.25
78317;BME280;67572;50.930;18.276;2023-08-12T07:41:32;99601.84;;;23.56;44.76
78317;BME280;67572;50.930;18.276;2023-08-12T07:44:35;99604.94;;;23.61;46.00
78317;BME280;67572;50.930;18.276;2023-08-12T07:47:41;99613.16;;;23.76;45.91
78317;BME280;67572;50.930;18.276;2023-08-12T07:50:44;99605.84;;;23.37;43.07
78317;BME280;67572;50.930;18.276;2023-08-12T07:53:50;99601.59;;;23.43;42.85
78317;BME280;67572;50.930;18.276;2023-08-12T07:56:54;99606.13;;;23.90;43.39
78317;BME280;67572;50.930;18.276;2023-08-12T07:59:58;99595.69;;;24.01;43.53
78317;BME280;67572;50.930;18.276;2023-08-12T08:03:03;99585.97;;;24.07;43.06
78317;BME280;67572;50.930;18.276;2023-08-12T08:06:07;99587.47;;;24.09;41.70
78317;BME280;67572;50.930;18.276;2023-08-12T08:09:11;99582.59;;;24.05;40.69
78317;BME280;67572;50.930;18.276;2023-08-12T08:12:14;99584.81;;;24.24;43.21
78317;BME280;67572;50.930;18.276;2023-08-12T08:15:19;99583.69;;;24.79;41.30
78317;BME280;67572;50.930;18.276;2023-08-12T08:18:24;99575.97;;;24.68;42.74
78317;BME280;67572;50.930;18.276;2023-08-12T08:21:27;99580.16;;;24.71;41.95
78317;BME280;67572;50.930;18.276;2023-08-12T08:24:31;99571.00;;;25.01;41.28
78317;BME280;67572;50.930;18.276;2023-08-12T08:27:34;99570.56;;;24.45;42.02
78317;BME280;67572;50.930;18.276;2023-08-12T08:30:38;99571.41;;;24.46;42.52
78317;BME280;67572;50.930;18.276;2023-08-12T08:33:43;99571.03;;;24.86;41.09
78317;BME280;67572;50.930;18.276;2023-08-12T08:36:47;99572.88;;;24.56;41.70
78317;BME280;67572;50.930;18.276;2023-08-12T08:39:51;99563.03;;;24.85;40.81
78317;BME280;67572;50.930;18.276;2023-08-12T08:42:57;99571.22;;;25.14;41.31
78317;BME280;67572;50.930;18.276;2023-08-12T08:46:06;99569.44;;;25.07;39.44
78317;BME280;67572;50.930;18.276;2023-08-12T08:49:11;99570.97;;;25.09;41.00
78317;BME280;67572;50.930;18.276;2023-08-12T08:52:17;99565.59;;;24.86;40.64
78317;BME280;67572;50.930;18.276;2023-08-12T08:55:22;99559.56;;;24.91;40.46
78317;BME280;67572;50.930;18.276;2023-08-12T08:58:25;99558.38;;;24.79;40.61
78317;BME280;67572;50.930;18.276;2023-08-12T09:01:30;99555.94;;;25.28;41.34
78317;BME280;67572;50.930;18.276;2023-08-12T09:04:36;99552.47;;;25.05;40.69
78317;BME280;67572;50.930;18.276;2023-08-12T09:07:41;99557.41;;;25.01;39.23
78317;BME280;67572;50.930;18.276;2023-08-12T09:10:46;99553.75;;;25.38;39.35
78317;BME280;67572;50.930;18.276;2023-08-12T09:13:50;99552.16;;;25.44;40.24
78317;BME280;67572;50.930;18.276;2023-08-12T09:16:54;99556.75;;;25.43;39.62
78317;BME280;67572;50.930;18.276;2023-08-12T09:20:00;99555.13;;;25.64;40.91
78317;BME280;67572;50.930;18.276;2023-08-12T09:23:05;99561.88;;;25.53;38.68
78317;BME280;67572;50.930;18.276;2023-08-12T09:26:13;99551.53;;;25.78;39.16
78317;BME280;67572;50.930;18.276;2023-08-12T09:29:17;99552.94;;;25.74;38.74
78317;BME280;67572;50.930;18.276;2023-08-12T09:32:21;99542.72;;;25.97;39.03
78317;BME280;67572;50.930;18.276;2023-08-12T09:35:32;99542.31;;;26.43;37.80
78317;BME280;67572;50.930;18.276;2023-08-12T09:38:37;99543.91;;;26.59;37.87
78317;BME280;67572;50.930;18.276;2023-08-12T09:41:42;99545.13;;;26.07;37.94
78317;BME280;67572;50.930;18.276;2023-08-12T09:44:46;99540.44;;;26.22;37.73
78317;BME280;67572;50.930;18.276;2023-08-12T09:47:50;99543.34;;;26.21;38.72
78317;BME280;67572;50.930;18.276;2023-08-12T09:50:56;99537.16;;;26.55;39.08
78317;BME280;67572;50.930;18.276;2023-08-12T09:54:00;99531.09;;;26.32;38.58
78317;BME280;67572;50.930;18.276;2023-08-12T09:57:05;99537.84;;;26.92;40.55
78317;BME280;67572;50.930;18.276;2023-08-12T10:00:12;99530.72;;;26.63;38.42
78317;BME280;67572;50.930;18.276;2023-08-12T10:03:20;99525.69;;;26.66;37.44
78317;BME280;67572;50.930;18.276;2023-08-12T10:06:25;99525.81;;;26.51;38.67
78317;BME280;67572;50.930;18.276;2023-08-12T10:09:30;99519.88;;;26.41;38.60
78317;BME280;67572;50.930;18.276;2023-08-12T10:12:34;99516.28;;;26.69;38.02
78317;BME280;67572;50.930;18.276;2023-08-12T10:15:39;99521.16;;;27.08;39.40
78317;BME280;67572;50.930;18.276;2023-08-12T10:18:46;99513.03;;;27.28;40.83
78317;BME280;67572;50.930;18.276;2023-08-12T10:21:55;99502.50;;;26.77;39.03
78317;BME280;67572;50.930;18.276;2023-08-12T10:25:02;99512.06;;;27.01;38.05
78317;BME280;67572;50.930;18.276;2023-08-12T10:28:06;99507.41;;;26.95;36.90
78317;BME280;67572;50.930;18.276;2023-08-12T10:31:11;99503.09;;;27.07;37.88
78317;BME280;67572;50.930;18.276;2023-08-12T10:36:55;99502.31;;;26.85;37.20
78317;BME280;67572;50.930;18.276;2023-08-12T10:40:09;99496.03;;;26.85;37.74
78317;BME280;67572;50.930;18.276;2023-08-12T10:43:26;99494.56;;;27.23;37.36
78317;BME280;67572;50.930;18.276;2023-08-12T10:46:31;99488.66;;;27.20;37.64
78317;BME280;67572;50.930;18.276;2023-08-12T10:49:38;99490.19;;;27.42;36.79
78317;BME280;67572;50.930;18.276;2023-08-12T10:52:44;99481.84;;;27.57;38.06
78317;BME280;67572;50.930;18.276;2023-08-12T10:55:49;99488.31;;;27.36;37.04
78317;BME280;67572;50.930;18.276;2023-08-12T10:58:52;99485.41;;;27.44;37.80
78317;BME280;67572;50.930;18.276;2023-08-12T11:02:06;99481.53;;;28.00;37.33
78317;BME280;67572;50.930;18.276;2023-08-12T11:05:12;99482.16;;;28.28;36.33
78317;BME280;67572;50.930;18.276;2023-08-12T11:08:18;99478.59;;;28.08;34.65
78317;BME280;67572;50.930;18.276;2023-08-12T11:11:26;99475.41;;;28.11;36.26
78317;BME280;67572;50.930;18.276;2023-08-12T11:14:30;99465.28;;;27.58;35.61
78317;BME280;67572;50.930;18.276;2023-08-12T11:17:35;99463.00;;;27.95;36.69
78317;BME280;67572;50.930;18.276;2023-08-12T11:20:39;99469.53;;;28.01;37.11
78317;BME280;67572;50.930;18.276;2023-08-12T11:23:44;99469.97;;;28.57;35.42
78317;BME280;67572;50.930;18.276;2023-08-12T11:26:49;99461.66;;;28.84;34.75
78317;BME280;67572;50.930;18.276;2023-08-12T11:29:54;99458.41;;;28.35;36.05
78317;BME280;67572;50.930;18.276;2023-08-12T11:32:58;99455.00;;;28.66;36.47
78317;BME280;67572;50.930;18.276;2023-08-12T11:36:02;99448.28;;;28.56;36.61
78317;BME280;67572;50.930;18.276;2023-08-12T11:39:08;99449.31;;;28.61;33.70
78317;BME280;67572;50.930;18.276;2023-08-12T11:42:11;99446.84;;;28.33;34.55
78317;BME280;67572;50.930;18.276;2023-08-12T11:45:19;99449.31;;;28.55;34.90
78317;BME280;67572;50.930;18.276;2023-08-12T11:48:23;99439.78;;;28.84;34.70
78317;BME280;67572;50.930;18.276;2023-08-12T11:51:28;99433.75;;;29.20;35.34
78317;BME280;67572;50.930;18.276;2023-08-12T11:54:33;99431.88;;;29.20;34.12
78317;BME280;67572;50.930;18.276;2023-08-12T11:57:39;99419.28;;;29.06;34.73
78317;BME280;67572;50.930;18.276;2023-08-12T12:00:42;99415.34;;;28.95;34.02
78317;BME280;67572;50.930;18.276;2023-08-12T12:03:50;99417.72;;;29.62;34.76
78317;BME280;67572;50.930;18.276;2023-08-12T12:06:54;99409.97;;;29.14;33.86
78317;BME280;67572;50.930;18.276;2023-08-12T12:09:59;99407.81;;;29.61;34.12
78317;BME280;67572;50.930;18.276;2023-08-12T12:13:03;99406.66;;;29.75;33.70
78317;BME280;67572;50.930;18.276;2023-08-12T12:16:10;99399.78;;;29.91;34.15
78317;BME280;67572;50.930;18.276;2023-08-12T12:19:15;99400.56;;;30.23;32.70
78317;BME280;67572;50.930;18.276;2023-08-12T12:22:19;99397.38;;;29.76;32.94
78317;BME280;67572;50.930;18.276;2023-08-12T12:25:25;99390.66;;;30.22;32.68
78317;BME280;67572;50.930;18.276;2023-08-12T12:28:29;99382.72;;;29.89;31.79
78317;BME280;67572;50.930;18.276;2023-08-12T12:31:33;99391.06;;;30.44;32.33
78317;BME280;67572;50.930;18.276;2023-08-12T12:34:38;99386.88;;;30.59;31.77
78317;BME280;67572;50.930;18.276;2023-08-12T12:37:41;99389.16;;;30.26;32.98
78317;BME280;67572;50.930;18.276;2023-08-12T12:40:46;99384.69;;;30.68;32.51
78317;BME280;67572;50.930;18.276;2023-08-12T12:43:50;99381.56;;;30.46;30.83
78317;BME280;67572;50.930;18.276;2023-08-12T12:46:53;99372.28;;;30.84;31.99
78317;BME280;67572;50.930;18.276;2023-08-12T12:49:57;99378.97;;;30.33;31.16
78317;BME280;67572;50.930;18.276;2023-08-12T12:53:00;99375.69;;;30.43;32.92
78317;BME280;67572;50.930;18.276;2023-08-12T12:56:05;99378.00;;;30.46;30.70
78317;BME280;67572;50.930;18.276;2023-08-12T12:59:09;99366.41;;;31.29;29.37
78317;BME280;67572;50.930;18.276;2023-08-12T13:02:13;99369.13;;;30.99;29.12
78317;BME280;67572;50.930;18.276;2023-08-12T13:05:17;99369.66;;;31.37;31.22
78317;BME280;67572;50.930;18.276;2023-08-12T13:08:21;99370.00;;;31.94;30.44
78317;BME280;67572;50.930;18.276;2023-08-12T13:11:25;99359.56;;;31.61;31.24
78317;BME280;67572;50.930;18.276;2023-08-12T13:14:30;99357.91;;;32.30;28.95
78317;BME280;67572;50.930;18.276;2023-08-12T13:17:33;99357.50;;;31.57;29.42
78317;BME280;67572;50.930;18.276;2023-08-12T13:20:37;99355.63;;;31.27;29.51
78317;BME280;67572;50.930;18.276;2023-08-12T13:23:40;99351.16;;;31.56;29.27
78317;BME280;67572;50.930;18.276;2023-08-12T13:26:45;99349.44;;;32.20;29.69
78317;BME280;67572;50.930;18.276;2023-08-12T13:29:49;99341.41;;;32.54;28.46
78317;BME280;67572;50.930;18.276;2023-08-12T13:32:52;99340.34;;;31.85;29.64
78317;BME280;67572;50.930;18.276;2023-08-12T13:35:56;99335.66;;;31.62;28.46
78317;BME280;67572;50.930;18.276;2023-08-12T13:38:59;99338.25;;;31.57;28.89
78317;BME280;67572;50.930;18.276;2023-08-12T13:42:04;99330.91;;;31.81;28.51
78317;BME280;67572;50.930;18.276;2023-08-12T13:45:09;99330.19;;;32.20;28.60
78317;BME280;67572;50.930;18.276;2023-08-12T13:48:13;99332.66;;;31.52;28.82
78317;BME280;67572;50.930;18.276;2023-08-12T13:51:17;99321.72;;;31.98;29.64
78317;BME280;67572;50.930;18.276;2023-08-12T13:54:20;99317.28;;;32.21;27.29
78317;BME280;67572;50.930;18.276;2023-08-12T13:57:25;99312.72;;;32.03;28.21
78317;BME280;67572;50.930;18.276;2023-08-12T14:00:29;99313.94;;;32.07;25.55
78317;BME280;67572;50.930;18.276;2023-08-12T14:03:33;99311.03;;;32.25;26.89
78317;BME280;67572;50.930;18.276;2023-08-12T14:06:37;99309.59;;;32.11;27.08
78317;BME280;67572;50.930;18.276;2023-08-12T14:09:42;99304.22;;;32.16;26.86
78317;BME280;67572;50.930;18.276;2023-08-12T14:12:47;99303.63;;;32.38;27.68
78317;BME280;67572;50.930;18.276;2023-08-12T14:15:53;99302.81;;;31.79;27.49
78317;BME280;67572;50.930;18.276;2023-08-12T14:18:57;99302.69;;;32.72;26.93
78317;BME280;67572;50.930;18.276;2023-08-12T14:22:01;99304.38;;;31.98;27.95
78317;BME280;67572;50.930;18.276;2023-08-12T14:25:05;99295.97;;;31.69;28.79
78317;BME280;67572;50.930;18.276;2023-08-12T14:28:10;99289.63;;;31.45;28.84
78317;BME280;67572;50.930;18.276;2023-08-12T14:31:14;99291.66;;;31.62;30.00
78317;BME280;67572;50.930;18.276;2023-08-12T14:34:18;99285.94;;;32.62;27.66
78317;BME280;67572;50.930;18.276;2023-08-12T14:37:22;99291.28;;;32.40;27.97
78317;BME280;67572;50.930;18.276;2023-08-12T14:40:25;99281.63;;;32.14;28.22
78317;BME280;67572;50.930;18.276;2023-08-12T14:43:30;99289.13;;;32.30;26.86
78317;BME280;67572;50.930;18.276;2023-08-12T14:46:34;99280.00;;;32.53;27.44
78317;BME280;67572;50.930;18.276;2023-08-12T14:49:37;99273.50;;;32.08;28.37
78317;BME280;67572;50.930;18.276;2023-08-12T14:52:42;99276.91;;;32.50;28.93
78317;BME280;67572;50.930;18.276;2023-08-12T14:55:45;99261.41;;;32.09;27.49
78317;BME280;67572;50.930;18.276;2023-08-12T14:58:51;99271.22;;;31.69;28.33
78317;BME280;67572;50.930;18.276;2023-08-12T15:01:54;99265.22;;;32.19;27.89
78317;BME280;67572;50.930;18.276;2023-08-12T15:04:59;99261.81;;;32.52;28.16
78317;BME280;67572;50.930;18.276;2023-08-12T15:08:05;99256.34;;;32.41;27.52
78317;BME280;67572;50.930;18.276;2023-08-12T15:11:09;99246.25;;;32.58;27.48
78317;BME280;67572;50.930;18.276;2023-08-12T15:14:14;99245.63;;;32.56;28.14
78317;BME280;67572;50.930;18.276;2023-08-12T15:17:17;99250.56;;;31.79;28.02
78317;BME280;67572;50.930;18.276;2023-08-12T15:20:21;99248.50;;;32.21;28.01
78317;BME280;67572;50.930;18.276;2023-08-12T15:23:24;99241.78;;;32.57;27.93
78317;BME280;67572;50.930;18.276;2023-08-12T15:26:28;99242.28;;;32.14;27.64
78317;BME280;67572;50.930;18.276;2023-08-12T15:29:35;99246.50;;;31.93;28.92
78317;BME280;67572;50.930;18.276;2023-08-12T15:32:38;99249.78;;;32.18;27.68
78317;BME280;67572;50.930;18.276;2023-08-12T15:35:44;99244.34;;;31.95;27.61
78317;BME280;67572;50.930;18.276;2023-08-12T15:38:47;99245.66;;;31.81;26.89
78317;BME280;67572;50.930;18.276;2023-08-12T15:41:51;99246.38;;;31.76;27.88
78317;BME280;67572;50.930;18.276;2023-08-12T15:44:56;99241.72;;;31.88;28.21
78317;BME280;67572;50.930;18.276;2023-08-12T15:48:02;99242.44;;;31.84;27.86
78317;BME280;67572;50.930;18.276;2023-08-12T15:51:10;99240.50;;;31.72;27.17
78317;BME280;67572;50.930;18.276;2023-08-12T15:54:16;99226.81;;;32.24;27.41
78317;BME280;67572;50.930;18.276;2023-08-12T15:57:20;99234.19;;;31.84;28.57
78317;BME280;67572;50.930;18.276;2023-08-12T16:00:25;99234.06;;;31.67;28.17
78317;BME280;67572;50.930;18.276;2023-08-12T16:03:29;99233.00;;;31.68;27.50
78317;BME280;67572;50.930;18.276;2023-08-12T16:06:33;99226.41;;;31.57;28.27
78317;BME280;67572;50.930;18.276;2023-08-12T16:09:36;99221.16;;;31.32;27.74